createdAt,value
2017-09-27T00:02:27.488Z,28.50
2017-09-27T00:04:55.695Z,28.50
2017-09-27T00:07:23.960Z,28.50
2017-09-27T00:09:52.988Z,28.50
2017-09-27T00:12:21.221Z,28.40
2017-09-27T00:14:50.272Z,28.50
2017-09-27T00:17:18.501Z,28.40
2017-09-27T00:19:47.485Z,28.40
2017-09-27T00:22:16.472Z,28.40
2017-09-27T00:24:45.452Z,28.40
2017-09-27T00:27:13.685Z,28.40
2017-09-27T00:29:41.907Z,28.40
2017-09-27T00:32:10.232Z,28.40
2017-09-27T00:34:38.451Z,28.40
2017-09-27T00:37:06.680Z,28.40
2017-09-27T00:39:34.875Z,28.40
2017-09-27T00:42:03.092Z,28.40
2017-09-27T00:44:31.405Z,28.50
2017-09-27T00:46:59.623Z,28.50
2017-09-27T00:49:27.830Z,28.50
2017-09-27T00:51:56.832Z,28.50
2017-09-27T00:54:25.857Z,28.50
2017-09-27T00:56:54.088Z,28.50
2017-09-27T00:59:23.077Z,28.50
2017-09-27T01:01:51.860Z,28.50
2017-09-27T01:04:20.184Z,28.50
2017-09-27T01:06:48.432Z,28.50
2017-09-27T01:09:17.409Z,28.50
2017-09-27T01:11:45.619Z,28.40
2017-09-27T01:14:13.844Z,28.50
2017-09-27T01:16:42.064Z,28.40
2017-09-27T01:19:10.293Z,28.40
2017-09-27T01:21:38.523Z,28.40
2017-09-27T01:24:06.764Z,28.40
2017-09-27T01:26:35.786Z,28.40
2017-09-27T01:29:04.000Z,28.40
2017-09-27T01:31:32.228Z,28.40
2017-09-27T01:34:00.452Z,28.40
2017-09-27T01:36:28.680Z,28.40
2017-09-27T01:38:57.651Z,28.40
2017-09-27T01:41:26.624Z,28.40
2017-09-27T01:43:55.649Z,28.30
2017-09-27T01:46:24.617Z,28.40
2017-09-27T01:48:52.849Z,28.30
2017-09-27T01:51:21.078Z,28.30
2017-09-27T01:53:49.300Z,28.30
2017-09-27T01:56:17.515Z,28.30
2017-09-27T01:58:45.742Z,28.30
2017-09-27T02:01:13.956Z,28.30
2017-09-27T02:03:42.156Z,28.30
2017-09-27T02:06:10.409Z,28.30
2017-09-27T02:08:38.621Z,28.30
2017-09-27T02:11:07.660Z,28.30
2017-09-27T02:13:35.938Z,28.30
2017-09-27T02:16:04.164Z,28.30
2017-09-27T02:18:33.194Z,28.30
2017-09-27T02:21:01.385Z,28.30
2017-09-27T02:23:29.606Z,28.30
2017-09-27T02:25:58.613Z,28.30
2017-09-27T02:28:26.855Z,28.20
2017-09-27T02:30:55.072Z,28.20
2017-09-27T02:33:23.296Z,28.20
2017-09-27T02:35:51.533Z,28.20
2017-09-27T02:38:19.749Z,28.20
2017-09-27T02:40:48.029Z,28.20
2017-09-27T02:43:16.240Z,28.20
2017-09-27T02:45:44.503Z,28.20
2017-09-27T02:48:13.484Z,28.20
2017-09-27T02:50:41.804Z,28.20
2017-09-27T02:53:10.025Z,28.20
2017-09-27T02:55:38.255Z,28.20
2017-09-27T02:58:06.459Z,28.20
2017-09-27T03:00:34.703Z,28.20
2017-09-27T03:03:02.944Z,28.20
2017-09-27T03:05:31.158Z,28.20
2017-09-27T03:07:59.356Z,28.10
2017-09-27T03:10:27.655Z,28.10
2017-09-27T03:12:55.988Z,28.10
2017-09-27T03:18:04.180Z,28.10
2017-09-27T03:20:32.477Z,28.10
2017-09-27T03:23:00.696Z,28.10
2017-09-27T03:25:28.941Z,28.10
2017-09-27T03:27:57.164Z,28.10
2017-09-27T03:30:25.409Z,28.10
2017-09-27T03:32:59.404Z,28.10
2017-09-27T03:35:27.646Z,28.10
2017-09-27T03:37:56.640Z,28.00
2017-09-27T03:40:25.675Z,28.00
2017-09-27T03:42:53.915Z,28.00
2017-09-27T03:45:22.946Z,28.00
2017-09-27T03:47:51.152Z,28.00
2017-09-27T03:50:19.551Z,28.00
2017-09-27T03:52:47.823Z,28.00
2017-09-27T03:55:16.056Z,28.00
2017-09-27T03:57:44.266Z,28.00
2017-09-27T04:00:12.512Z,28.00
2017-09-27T04:02:40.743Z,28.00
2017-09-27T04:05:09.742Z,28.00
2017-09-27T04:07:38.846Z,28.00
2017-09-27T04:10:08.498Z,28.00
2017-09-27T04:12:36.716Z,27.90
2017-09-27T04:15:05.732Z,28.00
2017-09-27T04:17:34.032Z,27.90
2017-09-27T04:20:02.308Z,28.00
2017-09-27T04:22:30.546Z,27.90
2017-09-27T04:24:59.659Z,27.90
2017-09-27T04:27:27.892Z,27.90
2017-09-27T04:32:35.232Z,28.00
2017-09-27T04:35:03.469Z,28.00
2017-09-27T04:37:31.714Z,27.90
2017-09-27T04:39:59.923Z,27.90
2017-09-27T04:42:28.132Z,27.80
2017-09-27T04:44:56.388Z,27.80
2017-09-27T04:47:25.400Z,27.80
2017-09-27T04:49:53.754Z,27.70
2017-09-27T04:52:22.721Z,27.70
2017-09-27T04:54:51.748Z,27.70
2017-09-27T04:57:20.781Z,27.60
2017-09-27T04:59:49.022Z,27.70
2017-09-27T05:02:18.216Z,27.60
2017-09-27T05:04:47.216Z,27.60
2017-09-27T05:07:16.204Z,27.60
2017-09-27T05:09:45.209Z,27.50
2017-09-27T05:12:14.188Z,27.50
2017-09-27T05:14:43.156Z,27.50
2017-09-27T05:17:11.413Z,27.50
2017-09-27T05:19:39.652Z,27.50
2017-09-27T05:22:08.713Z,27.50
2017-09-27T05:24:36.957Z,27.50
2017-09-27T05:27:05.181Z,27.50
2017-09-27T05:29:34.156Z,27.50
2017-09-27T05:32:02.399Z,27.50
2017-09-27T05:34:30.631Z,27.50
2017-09-27T05:36:59.629Z,27.50
2017-09-27T05:39:28.591Z,27.50
2017-09-27T05:41:57.655Z,27.50
2017-09-27T05:44:25.953Z,27.50
2017-09-27T05:46:54.208Z,27.50
2017-09-27T05:49:22.460Z,27.50
2017-09-27T05:51:50.664Z,27.50
2017-09-27T05:54:18.890Z,27.50
2017-09-27T05:56:47.877Z,27.50
2017-09-27T05:59:16.869Z,27.50
2017-09-27T06:01:45.872Z,27.50
2017-09-27T06:04:15.600Z,27.50
2017-09-27T06:06:44.565Z,27.50
2017-09-27T06:09:12.881Z,27.50
2017-09-27T06:11:41.118Z,27.50
2017-09-27T06:14:10.097Z,27.50
2017-09-27T06:16:38.305Z,27.50
2017-09-27T06:19:07.292Z,27.60
2017-09-27T06:21:36.276Z,27.60
2017-09-27T06:24:04.504Z,27.50
2017-09-27T06:26:32.708Z,27.60
2017-09-27T06:29:01.074Z,27.60
2017-09-27T06:31:29.307Z,27.60
2017-09-27T06:33:57.545Z,27.60
2017-09-27T06:36:25.875Z,27.60
2017-09-27T06:38:54.064Z,27.60
2017-09-27T06:41:22.320Z,27.60
2017-09-27T06:43:50.589Z,27.60
2017-09-27T06:46:18.817Z,27.70
2017-09-27T06:48:47.029Z,27.70
2017-09-27T06:51:15.281Z,27.70
2017-09-27T06:53:43.524Z,27.70
2017-09-27T06:56:11.748Z,27.80
2017-09-27T06:58:39.972Z,27.80
2017-09-27T07:01:08.212Z,27.80
2017-09-27T07:03:36.464Z,27.80
2017-09-27T07:06:04.734Z,27.90
2017-09-27T07:08:32.957Z,27.90
2017-09-27T07:11:01.224Z,27.90
2017-09-27T07:13:30.488Z,27.90
2017-09-27T07:15:59.205Z,27.90
2017-09-27T07:18:27.471Z,28.00
2017-09-27T07:20:56.464Z,28.00
2017-09-27T07:23:25.486Z,28.00
2017-09-27T07:25:53.811Z,28.00
2017-09-27T07:28:22.204Z,28.10
2017-09-27T07:30:51.325Z,28.20
2017-09-27T07:33:19.596Z,28.20
2017-09-27T07:35:47.848Z,28.30
2017-09-27T07:38:16.853Z,28.30
2017-09-27T07:40:45.854Z,28.30
2017-09-27T07:43:14.155Z,28.30
2017-09-27T07:45:42.432Z,28.30
2017-09-27T07:48:10.783Z,28.30
2017-09-27T07:50:39.044Z,28.30
2017-09-27T07:53:08.100Z,28.40
2017-09-27T07:55:36.408Z,28.50
2017-09-27T07:58:04.641Z,28.50
2017-09-27T08:00:32.961Z,28.50
2017-09-27T08:03:01.201Z,28.50
2017-09-27T08:05:29.465Z,28.50
2017-09-27T08:07:57.700Z,28.50
2017-09-27T08:10:26.734Z,28.60
2017-09-27T08:12:54.960Z,28.60
2017-09-27T08:15:23.393Z,28.60
2017-09-27T08:17:51.572Z,28.70
2017-09-27T08:20:19.830Z,28.70
2017-09-27T08:22:53.080Z,28.70
2017-09-27T08:25:21.864Z,28.80
2017-09-27T08:27:50.290Z,28.80
2017-09-27T08:30:18.497Z,28.80
2017-09-27T08:32:46.768Z,28.90
2017-09-27T08:35:14.984Z,29.00
2017-09-27T08:37:44.952Z,29.10
2017-09-27T08:40:13.226Z,29.10
2017-09-27T08:42:41.499Z,29.20
2017-09-27T08:45:10.067Z,29.30
2017-09-27T08:47:38.312Z,29.40
2017-09-27T08:50:08.175Z,29.50
2017-09-27T08:52:36.377Z,29.50
2017-09-27T08:55:04.793Z,29.60
2017-09-27T08:57:33.789Z,29.80
2017-09-27T09:00:02.782Z,29.90
2017-09-27T09:02:31.765Z,29.90
2017-09-27T09:05:00.961Z,30.00
2017-09-27T09:07:29.374Z,30.00
2017-09-27T09:09:57.626Z,30.10
2017-09-27T09:12:26.646Z,30.20
2017-09-27T09:14:54.946Z,30.20
2017-09-27T09:17:23.165Z,30.20
2017-09-27T09:19:52.203Z,30.40
2017-09-27T09:22:20.547Z,30.30
2017-09-27T09:24:48.765Z,30.40
2017-09-27T09:27:17.018Z,30.50
2017-09-27T09:29:45.252Z,30.50
2017-09-27T09:32:13.480Z,30.60
2017-09-27T09:34:41.813Z,30.60
2017-09-27T09:37:10.373Z,30.70
2017-09-27T09:39:38.563Z,30.70
2017-09-27T09:42:07.713Z,30.70
2017-09-27T09:44:35.932Z,30.80
2017-09-27T09:47:04.196Z,30.80
2017-09-27T09:49:33.172Z,30.80
2017-09-27T09:52:01.425Z,30.80
2017-09-27T09:54:29.714Z,30.90
2017-09-27T09:56:57.960Z,30.90
2017-09-27T09:59:26.940Z,31.00
2017-09-27T10:01:55.938Z,31.00
2017-09-27T10:04:24.916Z,31.10
2017-09-27T10:06:53.161Z,31.10
2017-09-27T10:09:21.392Z,31.10
2017-09-27T10:11:49.797Z,31.20
2017-09-27T10:14:17.996Z,31.20
2017-09-27T10:16:46.245Z,31.20
2017-09-27T10:19:14.550Z,31.20
2017-09-27T10:21:42.773Z,31.20
2017-09-27T10:24:11.754Z,31.30
2017-09-27T10:26:40.734Z,31.30
2017-09-27T10:29:09.044Z,31.20
2017-09-27T10:31:37.285Z,31.20
2017-09-27T10:34:05.516Z,31.20
2017-09-27T10:36:33.792Z,31.30
2017-09-27T10:39:02.108Z,31.30
2017-09-27T10:41:30.367Z,31.40
2017-09-27T10:43:58.588Z,31.40
2017-09-27T10:46:27.565Z,31.50
2017-09-27T10:48:55.847Z,31.50
2017-09-27T10:51:24.821Z,31.60
2017-09-27T10:53:53.087Z,31.60
2017-09-27T10:56:21.344Z,31.70
2017-09-27T10:58:49.565Z,31.80
2017-09-27T11:01:17.801Z,31.90
2017-09-27T11:03:46.063Z,32.00
2017-09-27T11:06:16.065Z,32.10
2017-09-27T11:08:44.287Z,32.10
2017-09-27T11:11:12.508Z,32.20
2017-09-27T11:13:41.506Z,32.10
2017-09-27T11:16:09.744Z,32.10
2017-09-27T11:18:38.760Z,32.00
2017-09-27T11:21:07.817Z,31.70
2017-09-27T11:23:36.013Z,31.70
2017-09-27T11:26:04.266Z,31.50
2017-09-27T11:28:32.476Z,31.40
2017-09-27T11:31:01.476Z,31.30
2017-09-27T11:33:30.472Z,31.30
2017-09-27T11:35:59.455Z,31.30
2017-09-27T11:38:27.703Z,31.30
2017-09-27T11:40:55.966Z,31.30
2017-09-27T11:43:24.200Z,31.30
2017-09-27T11:45:52.503Z,31.30
2017-09-27T11:48:20.717Z,31.30
2017-09-27T11:50:48.929Z,31.30
2017-09-27T11:53:17.159Z,31.30
2017-09-27T11:55:45.400Z,31.30
2017-09-27T11:58:13.705Z,31.20
2017-09-27T12:00:41.924Z,31.20
2017-09-27T12:03:10.995Z,31.20
2017-09-27T12:05:40.726Z,31.10
2017-09-27T12:08:09.820Z,31.10
2017-09-27T12:10:38.840Z,31.10
2017-09-27T12:13:07.053Z,31.00
2017-09-27T12:15:35.313Z,31.00
2017-09-27T12:18:03.643Z,31.00
2017-09-27T12:20:32.809Z,31.10
2017-09-27T12:23:01.385Z,31.10
2017-09-27T12:25:29.605Z,31.10
2017-09-27T12:27:59.021Z,31.00
2017-09-27T12:30:27.233Z,31.00
2017-09-27T12:32:55.460Z,31.00
2017-09-27T12:35:24.470Z,31.10
2017-09-27T12:37:52.672Z,31.00
2017-09-27T12:40:20.889Z,31.10
2017-09-27T12:42:49.109Z,31.10
2017-09-27T12:45:17.337Z,31.10
2017-09-27T12:47:45.590Z,31.20
2017-09-27T12:50:13.816Z,31.20
2017-09-27T12:52:42.051Z,31.30
2017-09-27T12:55:10.297Z,31.30
2017-09-27T12:57:39.538Z,31.40
2017-09-27T13:00:07.870Z,31.40
2017-09-27T13:02:36.122Z,31.40
2017-09-27T13:05:05.208Z,31.40
2017-09-27T13:07:34.640Z,31.30
2017-09-27T13:10:02.839Z,31.30
2017-09-27T13:12:31.070Z,31.20
2017-09-27T13:14:59.280Z,31.20
2017-09-27T13:17:27.489Z,31.30
2017-09-27T13:19:55.815Z,31.30
2017-09-27T13:22:24.164Z,31.40
2017-09-27T13:24:52.352Z,31.50
2017-09-27T13:27:20.651Z,31.60
2017-09-27T13:29:48.860Z,31.50
2017-09-27T13:32:17.192Z,31.40
2017-09-27T13:34:45.445Z,31.40
2017-09-27T13:37:14.420Z,31.30
2017-09-27T13:39:42.653Z,31.30
2017-09-27T13:42:10.927Z,31.20
2017-09-27T13:44:39.170Z,31.10
2017-09-27T13:47:08.193Z,31.00
2017-09-27T13:49:36.510Z,31.00
2017-09-27T13:52:04.745Z,31.00
2017-09-27T13:54:32.982Z,31.10
2017-09-27T13:57:01.181Z,31.10
2017-09-27T13:59:29.442Z,31.20
2017-09-27T14:01:58.451Z,31.20
2017-09-27T14:04:26.699Z,31.20
2017-09-27T14:06:55.715Z,31.30
2017-09-27T14:09:24.765Z,31.30
2017-09-27T14:11:52.972Z,31.30
2017-09-27T14:14:21.948Z,31.40
2017-09-27T14:16:50.188Z,31.40
2017-09-27T14:21:54.228Z,31.70
2017-09-27T14:24:22.865Z,31.70
2017-09-27T14:26:51.960Z,31.90
2017-09-27T14:29:21.020Z,31.90
2017-09-27T14:31:54.165Z,31.90
2017-09-27T14:34:22.444Z,32.00
2017-09-27T14:36:50.664Z,32.00
2017-09-27T14:39:18.893Z,32.10
2017-09-27T14:41:47.277Z,32.10
2017-09-27T14:44:15.506Z,32.20
2017-09-27T14:46:43.723Z,32.20
2017-09-27T14:49:11.951Z,32.20
2017-09-27T14:51:40.922Z,32.30
2017-09-27T14:54:09.133Z,32.30
2017-09-27T14:56:38.140Z,32.30
2017-09-27T14:59:07.137Z,32.20
2017-09-27T15:01:36.129Z,32.10
2017-09-27T15:04:04.345Z,32.10
2017-09-27T15:06:32.661Z,32.00
2017-09-27T15:09:01.012Z,32.00
2017-09-27T15:11:29.225Z,31.90
2017-09-27T15:13:58.243Z,31.80
2017-09-27T15:16:26.481Z,31.80
2017-09-27T15:18:54.771Z,31.70
2017-09-27T15:21:23.794Z,31.40
2017-09-27T15:23:52.024Z,31.40
2017-09-27T15:26:21.052Z,31.10
2017-09-27T15:28:49.445Z,31.10
2017-09-27T15:31:17.713Z,31.00
2017-09-27T15:33:45.948Z,30.90
2017-09-27T15:36:14.190Z,30.80
2017-09-27T15:38:48.193Z,30.70
2017-09-27T15:41:16.785Z,30.50
2017-09-27T15:43:45.028Z,30.40
2017-09-27T15:46:13.274Z,30.40
2017-09-27T15:48:41.685Z,30.30
2017-09-27T15:51:09.913Z,30.30
2017-09-27T15:53:38.140Z,30.20
2017-09-27T15:56:06.357Z,30.10
2017-09-27T15:58:35.065Z,30.10
2017-09-27T16:01:04.090Z,30.10
2017-09-27T16:03:33.112Z,30.10
2017-09-27T16:06:01.323Z,30.10
2017-09-27T16:08:29.541Z,30.10
2017-09-27T16:10:58.528Z,30.10
2017-09-27T16:13:26.763Z,30.10
2017-09-27T16:17:19.444Z,30.00
2017-09-27T16:19:48.497Z,29.80
2017-09-27T16:22:16.675Z,29.80
2017-09-27T16:24:44.969Z,29.80
2017-09-27T16:27:13.176Z,29.70
2017-09-27T16:29:42.156Z,29.60
2017-09-27T16:32:11.156Z,29.60
2017-09-27T16:34:40.288Z,29.50
2017-09-27T16:37:08.494Z,29.50
2017-09-27T16:39:36.726Z,29.50
2017-09-27T16:42:04.956Z,29.50
2017-09-27T16:44:33.215Z,29.40
2017-09-27T16:47:02.159Z,29.30
2017-09-27T16:49:30.373Z,29.30
2017-09-27T16:51:58.601Z,29.30
2017-09-27T16:54:28.232Z,29.30
2017-09-27T16:56:56.460Z,29.30
2017-09-27T16:59:24.676Z,29.20
2017-09-27T17:01:52.895Z,29.10
2017-09-27T17:04:21.143Z,29.00
2017-09-27T17:06:49.348Z,28.80
2017-09-27T17:09:17.566Z,28.70
2017-09-27T17:11:46.565Z,28.50
2017-09-27T17:14:15.572Z,28.40
2017-09-27T17:16:43.800Z,28.40
2017-09-27T17:19:12.063Z,28.50
2017-09-27T17:21:40.296Z,28.60
2017-09-27T17:24:08.530Z,28.80
2017-09-27T17:26:36.744Z,28.90
2017-09-27T17:29:04.979Z,29.00
2017-09-27T17:31:33.172Z,29.10
2017-09-27T17:34:02.156Z,29.30
2017-09-27T17:36:31.125Z,29.40
2017-09-27T17:38:59.474Z,29.40
2017-09-27T17:41:27.716Z,29.50
2017-09-27T17:43:56.755Z,29.50
2017-09-27T17:46:24.991Z,29.50
2017-09-27T17:48:53.235Z,29.60
2017-09-27T17:51:21.561Z,29.60
2017-09-27T17:53:49.828Z,29.70
2017-09-27T17:56:18.056Z,29.70
2017-09-27T17:58:46.346Z,29.70
2017-09-27T18:01:15.408Z,29.70
2017-09-27T18:03:43.748Z,29.70
2017-09-27T18:06:16.620Z,29.70
2017-09-27T18:08:48.478Z,29.70
2017-09-27T18:11:20.951Z,29.70
2017-09-27T18:13:50.268Z,29.70
2017-09-27T18:16:18.674Z,29.70
2017-09-27T18:18:46.916Z,29.70
2017-09-27T18:21:15.956Z,29.70
2017-09-27T18:23:44.212Z,29.70
2017-09-27T18:26:13.176Z,29.70
2017-09-27T18:28:42.228Z,29.70
2017-09-27T18:31:10.476Z,29.70
2017-09-27T18:33:38.718Z,29.70
2017-09-27T18:36:07.725Z,29.70
2017-09-27T18:38:35.941Z,29.70
2017-09-27T18:41:04.176Z,29.60
2017-09-27T18:43:33.240Z,29.60
2017-09-27T18:46:01.480Z,29.60
2017-09-27T18:48:29.726Z,29.60
2017-09-27T18:50:58.765Z,29.60
2017-09-27T18:53:27.007Z,29.60
2017-09-27T18:55:55.225Z,29.60
2017-09-27T18:58:23.443Z,29.50
2017-09-27T19:03:31.668Z,29.50
2017-09-27T19:05:59.889Z,29.50
2017-09-27T19:08:28.112Z,29.50
2017-09-27T19:10:57.132Z,29.50
2017-09-27T19:13:25.344Z,29.50
2017-09-27T19:15:53.576Z,29.50
2017-09-27T19:18:21.842Z,29.40
2017-09-27T19:20:50.816Z,29.40
2017-09-27T19:23:19.065Z,29.40
2017-09-27T19:25:47.313Z,29.40
2017-09-27T19:28:15.547Z,29.40
2017-09-27T19:30:43.765Z,29.40
2017-09-27T19:33:12.018Z,29.40
2017-09-27T19:35:41.016Z,29.40
2017-09-27T19:38:09.306Z,29.40
2017-09-27T19:40:37.652Z,29.40
2017-09-27T19:43:06.689Z,29.30
2017-09-27T19:45:34.917Z,29.30
2017-09-27T19:48:04.112Z,29.30
2017-09-27T19:50:32.889Z,29.30
2017-09-27T19:53:01.113Z,29.30
2017-09-27T19:55:29.335Z,29.30
2017-09-27T19:57:57.584Z,29.30
2017-09-27T20:00:25.809Z,29.30
2017-09-27T20:02:54.823Z,29.30
2017-09-27T20:05:23.028Z,29.30
2017-09-27T20:07:51.258Z,29.30
2017-09-27T20:10:20.233Z,29.30
2017-09-27T20:12:48.457Z,29.30
2017-09-27T20:15:16.678Z,29.20
2017-09-27T20:17:44.925Z,29.20
2017-09-27T20:20:13.132Z,29.20
2017-09-27T20:22:41.466Z,29.20
2017-09-27T20:25:09.709Z,29.20
2017-09-27T20:27:38.732Z,29.20
2017-09-27T20:30:06.964Z,29.20
2017-09-27T20:32:36.017Z,29.20
2017-09-27T20:35:04.239Z,29.20
2017-09-27T20:37:33.278Z,29.20
2017-09-27T20:40:01.477Z,29.20
2017-09-27T20:42:29.737Z,29.20
2017-09-27T20:44:57.995Z,29.20
2017-09-27T20:47:26.214Z,29.20
2017-09-27T20:49:54.437Z,29.20
2017-09-27T20:52:22.740Z,29.20
2017-09-27T20:54:50.931Z,29.10
2017-09-27T20:57:19.144Z,29.10
2017-09-27T20:59:48.132Z,29.10
2017-09-27T21:02:17.107Z,29.20
2017-09-27T21:04:46.110Z,29.10
2017-09-27T21:07:14.336Z,29.10
2017-09-27T21:09:42.594Z,29.10
2017-09-27T21:12:10.805Z,29.10
2017-09-27T21:14:39.016Z,29.10
2017-09-27T21:17:07.232Z,29.10
2017-09-27T21:19:35.464Z,29.10
2017-09-27T21:22:04.509Z,29.10
2017-09-27T21:24:32.737Z,29.10
2017-09-27T21:27:00.968Z,29.10
2017-09-27T21:29:29.345Z,29.10
2017-09-27T21:34:36.712Z,29.10
2017-09-27T21:37:05.696Z,29.10
2017-09-27T21:39:34.708Z,29.10
2017-09-27T21:42:02.976Z,29.10
2017-09-27T21:44:32.000Z,29.20
2017-09-27T21:47:00.204Z,29.10
2017-09-27T21:49:28.444Z,29.20
2017-09-27T21:51:56.664Z,29.20
2017-09-27T21:54:24.928Z,29.20
2017-09-27T21:56:53.156Z,29.10
2017-09-27T21:59:21.378Z,29.10
2017-09-27T22:01:49.609Z,29.10
2017-09-27T22:04:18.192Z,29.10
2017-09-27T22:06:47.184Z,29.10
2017-09-27T22:09:16.156Z,29.10
2017-09-27T22:11:44.379Z,29.10
2017-09-27T22:14:12.600Z,29.10
2017-09-27T22:16:40.870Z,29.10
2017-09-27T22:19:09.096Z,29.10
2017-09-27T22:21:37.336Z,29.10
2017-09-27T22:24:05.567Z,29.00
2017-09-27T22:26:33.788Z,29.00
2017-09-27T22:29:02.827Z,29.00
2017-09-27T22:31:31.065Z,29.00
2017-09-27T22:34:00.036Z,29.00
2017-09-27T22:36:28.288Z,29.00
2017-09-27T22:38:56.521Z,29.00
2017-09-27T22:41:24.770Z,29.00
2017-09-27T22:43:53.009Z,29.00
2017-09-27T22:46:21.653Z,29.00
2017-09-27T22:48:50.687Z,28.90
2017-09-27T22:51:19.068Z,29.00
2017-09-27T22:53:47.300Z,28.90
2017-09-27T22:56:16.284Z,29.00
2017-09-27T22:58:45.276Z,28.90
2017-09-27T23:01:14.244Z,28.90
2017-09-27T23:03:42.457Z,28.90
2017-09-27T23:06:11.456Z,28.90
2017-09-27T23:08:39.668Z,28.90
2017-09-27T23:11:07.944Z,28.90
2017-09-27T23:13:36.191Z,28.90
2017-09-27T23:16:04.421Z,28.90
2017-09-27T23:18:32.655Z,28.90
2017-09-27T23:21:00.872Z,28.90
2017-09-27T23:23:29.096Z,28.90
2017-09-27T23:25:57.365Z,28.80
2017-09-27T23:28:26.369Z,28.80
2017-09-27T23:30:54.580Z,28.80
2017-09-27T23:33:23.547Z,28.80
2017-09-27T23:35:51.780Z,28.80
2017-09-27T23:38:20.765Z,28.80
2017-09-27T23:40:48.996Z,28.80
2017-09-27T23:43:17.221Z,28.80
2017-09-27T23:45:46.208Z,28.80
2017-09-27T23:48:14.431Z,28.80
2017-09-27T23:50:43.631Z,28.80
2017-09-27T23:53:11.853Z,28.80
2017-09-27T23:55:40.061Z,28.80
2017-09-27T23:58:08.258Z,28.80
